createdAt,value
2023-05-12T00:00:01.588Z,5.32
2023-05-12T00:01:04.464Z,4.86
2023-05-12T00:02:07.443Z,4.95
2023-05-12T00:03:10.565Z,9.82
2023-05-12T00:04:13.426Z,24.48
2023-05-12T00:05:16.080Z,8.70
2023-05-12T00:06:18.731Z,4.76
2023-05-12T00:07:21.301Z,4.70
2023-05-12T00:08:23.976Z,4.65
2023-05-12T00:09:26.638Z,4.39
2023-05-12T00:10:29.318Z,4.64
2023-05-12T00:11:31.977Z,4.78
2023-05-12T00:12:34.852Z,4.62
2023-05-12T00:13:37.550Z,4.50
2023-05-12T00:14:40.299Z,3.61
2023-05-12T00:15:42.964Z,3.65
2023-05-12T00:16:45.683Z,3.37
2023-05-12T00:17:48.330Z,3.61
2023-05-12T00:18:51.017Z,3.77
2023-05-12T00:19:53.655Z,3.75
2023-05-12T00:20:56.214Z,3.35
2023-05-12T00:21:58.879Z,3.67
2023-05-12T00:23:01.548Z,3.65
2023-05-12T00:24:04.227Z,3.55
2023-05-12T00:25:07.127Z,3.12
2023-05-12T00:26:09.772Z,3.25
2023-05-12T00:27:12.544Z,3.32
2023-05-12T00:28:15.221Z,3.59
2023-05-12T00:29:17.771Z,3.45
2023-05-12T00:30:20.643Z,3.19
2023-05-12T00:31:23.763Z,2.97
2023-05-12T00:32:26.944Z,2.95
2023-05-12T00:33:29.815Z,2.86
2023-05-12T00:34:32.773Z,3.62
2023-05-12T00:35:35.640Z,2.87
2023-05-12T00:36:38.524Z,3.03
2023-05-12T00:37:41.702Z,2.71
2023-05-12T00:38:44.469Z,3.15
2023-05-12T00:39:47.458Z,3.45
2023-05-12T00:40:50.530Z,3.38
2023-05-12T00:41:53.505Z,3.59
2023-05-12T00:42:56.890Z,2.99
2023-05-12T00:43:59.784Z,2.89
2023-05-12T00:45:02.642Z,3.04
2023-05-12T00:46:05.605Z,3.38
2023-05-12T00:47:08.592Z,3.22
2023-05-12T00:48:11.625Z,3.03
2023-05-12T00:49:14.443Z,3.43
2023-05-12T00:50:17.433Z,3.17
2023-05-12T00:51:20.505Z,3.02
2023-05-12T00:52:23.485Z,4.08
2023-05-12T00:53:32.582Z,3.12
2023-05-12T00:54:31.397Z,4.86
2023-05-12T00:55:34.252Z,2.69
2023-05-12T00:56:37.331Z,2.98
2023-05-12T00:57:40.310Z,2.37
2023-05-12T00:58:43.508Z,2.76
2023-05-12T00:59:46.262Z,2.98
2023-05-12T01:00:49.213Z,3.17
2023-05-12T01:01:51.819Z,2.72
2023-05-12T01:02:54.487Z,2.33
2023-05-12T01:03:57.150Z,2.45
2023-05-12T01:04:59.815Z,2.42
2023-05-12T01:06:02.392Z,2.75
2023-05-12T01:07:05.052Z,2.97
2023-05-12T01:08:07.521Z,2.79
2023-05-12T01:09:10.198Z,2.51
2023-05-12T01:10:12.968Z,2.81
2023-05-12T01:11:15.839Z,2.66
2023-05-12T01:12:18.614Z,2.85
2023-05-12T01:13:21.488Z,2.47
2023-05-12T01:14:24.477Z,2.51
2023-05-12T01:15:27.334Z,2.55
2023-05-12T01:16:33.398Z,2.88
2023-05-12T01:17:36.382Z,2.65
2023-05-12T01:18:39.398Z,2.51
2023-05-12T01:19:42.622Z,2.37
2023-05-12T01:20:45.401Z,2.42
2023-05-12T01:21:48.269Z,2.90
2023-05-12T01:22:51.046Z,2.18
2023-05-12T01:23:53.919Z,2.04
2023-05-12T01:24:56.902Z,2.28
2023-05-12T01:25:59.772Z,2.38
2023-05-12T01:27:02.641Z,2.77
2023-05-12T01:28:05.640Z,2.63
2023-05-12T01:29:08.599Z,2.23
2023-05-12T01:30:11.791Z,2.51
2023-05-12T01:31:14.780Z,2.25
2023-05-12T01:32:17.531Z,1.98
2023-05-12T01:33:20.412Z,2.28
2023-05-12T01:34:23.283Z,2.44
2023-05-12T01:35:26.357Z,2.19
2023-05-12T01:36:29.248Z,1.86
2023-05-12T01:37:32.016Z,2.11
2023-05-12T01:38:34.778Z,1.96
2023-05-12T01:39:37.459Z,1.65
2023-05-12T01:40:40.632Z,2.02
2023-05-12T01:41:43.192Z,2.02
2023-05-12T01:42:45.861Z,2.17
2023-05-12T01:43:48.530Z,1.84
2023-05-12T01:44:51.203Z,2.26
2023-05-12T01:45:54.177Z,2.52
2023-05-12T01:46:56.865Z,2.11
2023-05-12T01:47:59.696Z,2.16
2023-05-12T01:49:02.492Z,2.22
2023-05-12T01:50:05.167Z,2.23
2023-05-12T01:51:07.843Z,2.01
2023-05-12T01:52:10.498Z,2.24
2023-05-12T01:53:13.284Z,2.48
2023-05-12T01:54:16.213Z,2.56
2023-05-12T01:55:19.142Z,2.39
2023-05-12T01:56:22.113Z,2.15
2023-05-12T01:57:24.985Z,2.38
2023-05-12T01:58:27.848Z,2.18
2023-05-12T01:59:30.725Z,2.48
2023-05-12T02:00:33.501Z,2.53
2023-05-12T02:01:36.293Z,2.25
2023-05-12T02:02:40.287Z,2.12
2023-05-12T02:03:43.253Z,2.07
2023-05-12T02:04:45.921Z,2.08
2023-05-12T02:05:48.592Z,2.18
2023-05-12T02:06:51.254Z,1.98
2023-05-12T02:07:53.826Z,2.24
2023-05-12T02:08:56.496Z,2.26
2023-05-12T02:09:59.165Z,2.16
2023-05-12T02:11:02.044Z,2.21
2023-05-12T02:12:05.048Z,2.28
2023-05-12T02:13:07.586Z,2.44
2023-05-12T02:14:10.357Z,2.39
2023-05-12T02:15:13.139Z,2.24
2023-05-12T02:16:16.023Z,2.25
2023-05-12T02:17:18.981Z,2.14
2023-05-12T02:18:21.832Z,2.37
2023-05-12T02:19:24.742Z,2.18
2023-05-12T02:20:27.599Z,2.10
2023-05-12T02:21:30.482Z,2.14
2023-05-12T02:22:33.553Z,1.92
2023-05-12T02:23:36.337Z,2.15
2023-05-12T02:24:39.205Z,1.99
2023-05-12T02:25:42.090Z,2.14
2023-05-12T02:26:44.958Z,2.00
2023-05-12T02:27:48.042Z,1.94
2023-05-12T02:28:50.911Z,1.94
2023-05-12T02:29:53.682Z,2.15
2023-05-12T02:30:56.562Z,1.88
2023-05-12T02:31:59.155Z,2.45
2023-05-12T02:33:01.849Z,3.45
2023-05-12T02:34:06.584Z,3.34
2023-05-12T02:35:09.087Z,2.89
2023-05-12T02:36:11.956Z,3.28
2023-05-12T02:37:14.829Z,2.79
2023-05-12T02:38:17.810Z,3.42
2023-05-12T02:39:20.791Z,3.21
2023-05-12T02:40:23.654Z,2.68
2023-05-12T02:41:26.535Z,2.86
2023-05-12T02:42:29.100Z,2.96
2023-05-12T02:43:32.177Z,2.89
2023-05-12T02:44:35.054Z,2.84
2023-05-12T02:45:37.939Z,2.85
2023-05-12T02:46:40.802Z,2.94
2023-05-12T02:47:43.599Z,3.02
2023-05-12T02:48:46.656Z,3.22
2023-05-12T02:49:49.635Z,3.46
2023-05-12T02:50:52.412Z,3.52
2023-05-12T02:51:55.495Z,3.28
2023-05-12T02:52:58.360Z,3.26
2023-05-12T02:54:01.336Z,3.53
2023-05-12T02:55:04.207Z,3.86
2023-05-12T02:56:07.090Z,3.50
2023-05-12T02:57:10.169Z,3.61
2023-05-12T02:58:13.053Z,3.75
2023-05-12T02:59:16.030Z,3.92
2023-05-12T03:00:18.964Z,3.66
2023-05-12T03:01:21.700Z,3.56
2023-05-12T03:02:24.360Z,4.02
2023-05-12T03:03:27.141Z,4.00
2023-05-12T03:04:30.300Z,3.84
2023-05-12T03:05:32.858Z,3.80
2023-05-12T03:06:35.537Z,3.77
2023-05-12T03:07:38.199Z,3.65
2023-05-12T03:08:40.866Z,3.15
2023-05-12T03:09:43.650Z,3.46
2023-05-12T03:10:46.308Z,3.59
2023-05-12T03:11:49.186Z,3.78
2023-05-12T03:12:51.954Z,3.48
2023-05-12T03:13:54.727Z,3.72
2023-05-12T03:14:57.805Z,3.75
2023-05-12T03:16:00.680Z,3.68
2023-05-12T03:17:03.596Z,3.82
2023-05-12T03:18:06.580Z,3.58
2023-05-12T03:19:09.559Z,3.86
2023-05-12T03:20:12.490Z,4.17
2023-05-12T03:21:18.436Z,4.16
2023-05-12T03:22:21.409Z,4.47
2023-05-12T03:23:24.385Z,4.20
2023-05-12T03:24:27.264Z,3.63
2023-05-12T03:25:30.239Z,3.72
2023-05-12T03:26:33.026Z,3.73
2023-05-12T03:27:38.967Z,3.88
2023-05-12T03:28:41.837Z,3.92
2023-05-12T03:29:44.709Z,3.78
2023-05-12T03:30:47.886Z,3.66
2023-05-12T03:31:50.791Z,3.59
2023-05-12T03:32:53.716Z,3.51
2023-05-12T03:33:56.719Z,3.82
2023-05-12T03:34:59.284Z,3.69
2023-05-12T03:36:01.959Z,3.77
2023-05-12T03:37:04.629Z,3.53
2023-05-12T03:38:07.309Z,3.44
2023-05-12T03:39:09.862Z,3.92
2023-05-12T03:40:12.434Z,4.05
2023-05-12T03:41:14.999Z,3.40
2023-05-12T03:42:17.675Z,3.87
2023-05-12T03:43:20.337Z,3.80
2023-05-12T03:44:22.914Z,3.20
2023-05-12T03:45:25.627Z,3.75
2023-05-12T03:46:28.826Z,3.58
2023-05-12T03:47:31.933Z,3.53
2023-05-12T03:48:34.808Z,3.36
2023-05-12T03:49:37.478Z,3.75
2023-05-12T03:50:40.148Z,3.22
2023-05-12T03:51:43.042Z,3.88
2023-05-12T03:52:46.103Z,3.49
2023-05-12T03:53:48.783Z,3.45
2023-05-12T03:54:51.445Z,3.28
2023-05-12T03:55:54.116Z,3.20
2023-05-12T03:56:56.886Z,3.21
2023-05-12T03:57:59.556Z,3.75
2023-05-12T03:59:02.130Z,3.37
2023-05-12T04:00:04.795Z,3.65
2023-05-12T04:01:07.359Z,3.59
2023-05-12T04:02:10.163Z,3.53
2023-05-12T04:03:12.782Z,3.27
2023-05-12T04:04:15.673Z,3.41
2023-05-12T04:05:18.566Z,3.01
2023-05-12T04:06:21.325Z,3.05
2023-05-12T04:07:24.197Z,3.33
2023-05-12T04:08:26.973Z,3.64
2023-05-12T04:09:29.855Z,4.05
2023-05-12T04:10:32.729Z,3.48
2023-05-12T04:11:35.597Z,3.43
2023-05-12T04:12:38.684Z,3.26
2023-05-12T04:13:41.964Z,3.26
2023-05-12T04:14:44.739Z,3.44
2023-05-12T04:15:47.513Z,3.66
2023-05-12T04:16:50.312Z,3.69
2023-05-12T04:17:53.427Z,3.16
2023-05-12T04:18:56.362Z,3.31
2023-05-12T04:19:59.106Z,3.05
2023-05-12T04:21:02.083Z,3.09
2023-05-12T04:22:04.749Z,3.22
2023-05-12T04:23:07.835Z,3.25
2023-05-12T04:24:10.806Z,3.08
2023-05-12T04:25:13.782Z,3.23
2023-05-12T04:26:16.657Z,3.28
2023-05-12T04:27:19.553Z,3.00
2023-05-12T04:28:22.634Z,3.37
2023-05-12T04:29:25.383Z,2.92
2023-05-12T04:30:28.259Z,3.77
2023-05-12T04:31:31.159Z,3.14
2023-05-12T04:32:34.050Z,3.31
2023-05-12T04:33:37.306Z,3.51
2023-05-12T04:34:40.083Z,3.30
2023-05-12T04:35:42.861Z,3.43
2023-05-12T04:36:45.721Z,3.30
2023-05-12T04:37:48.695Z,2.88
2023-05-12T04:38:51.694Z,3.16
2023-05-12T04:39:54.765Z,2.82
2023-05-12T04:40:57.624Z,3.09
2023-05-12T04:42:00.595Z,3.02
2023-05-12T04:43:03.477Z,2.85
2023-05-12T04:44:06.355Z,2.63
2023-05-12T04:45:09.156Z,3.20
2023-05-12T04:46:12.150Z,2.87
2023-05-12T04:47:14.971Z,2.96
2023-05-12T04:48:17.749Z,2.84
2023-05-12T04:49:20.520Z,2.95
2023-05-12T04:50:23.298Z,3.04
2023-05-12T04:51:26.704Z,2.58
2023-05-12T04:52:29.654Z,3.12
2023-05-12T04:53:32.530Z,2.78
2023-05-12T04:54:35.733Z,3.12
2023-05-12T04:55:38.485Z,2.80
2023-05-12T04:56:41.157Z,3.17
2023-05-12T04:57:43.833Z,3.04
2023-05-12T04:58:46.395Z,3.12
2023-05-12T04:59:51.196Z,3.28
2023-05-12T05:00:53.977Z,3.50
2023-05-12T05:01:56.652Z,3.54
2023-05-12T05:02:59.375Z,3.43
2023-05-12T05:04:01.999Z,3.15
2023-05-12T05:05:04.765Z,3.21
2023-05-12T05:06:07.433Z,3.08
2023-05-12T05:07:10.114Z,3.40
2023-05-12T05:08:12.788Z,3.69
2023-05-12T05:09:15.556Z,4.00
2023-05-12T05:10:18.128Z,3.44
2023-05-12T05:11:20.787Z,3.59
2023-05-12T05:12:23.354Z,3.47
2023-05-12T05:13:26.245Z,3.22
2023-05-12T05:14:28.908Z,3.52
2023-05-12T05:15:31.910Z,3.59
2023-05-12T05:16:34.757Z,3.52
2023-05-12T05:17:37.527Z,3.18
2023-05-12T05:18:40.452Z,3.00
2023-05-12T05:19:54.810Z,3.45
2023-05-12T05:20:56.068Z,3.53
2023-05-12T05:21:52.094Z,3.49
2023-05-12T05:22:54.860Z,3.48
2023-05-12T05:23:57.737Z,3.37
2023-05-12T05:25:00.518Z,3.34
2023-05-12T05:26:03.689Z,2.98
2023-05-12T05:27:06.460Z,3.43
2023-05-12T05:28:09.438Z,3.36
2023-05-12T05:29:12.117Z,3.63
2023-05-12T05:30:15.092Z,3.37
2023-05-12T05:31:17.985Z,3.39
2023-05-12T05:32:20.873Z,3.34
2023-05-12T05:33:23.917Z,3.46
2023-05-12T05:34:26.900Z,3.15
2023-05-12T05:35:29.765Z,3.19
2023-05-12T05:36:32.949Z,3.35
2023-05-12T05:37:36.233Z,3.44
2023-05-12T05:38:39.345Z,3.14
2023-05-12T05:39:42.187Z,3.68
2023-05-12T05:40:52.779Z,3.33
2023-05-12T05:41:49.677Z,3.27
2023-05-12T05:42:52.651Z,3.31
2023-05-12T05:43:55.521Z,3.29
2023-05-12T05:44:58.416Z,3.54
2023-05-12T05:46:01.419Z,3.14
2023-05-12T05:47:04.562Z,3.05
2023-05-12T05:48:07.567Z,3.32
2023-05-12T05:49:10.415Z,3.47
2023-05-12T05:50:13.300Z,3.31
2023-05-12T05:51:16.274Z,3.39
2023-05-12T05:52:19.258Z,3.28
2023-05-12T05:53:22.852Z,3.91
2023-05-12T05:54:25.814Z,3.43
2023-05-12T05:55:28.589Z,3.38
2023-05-12T05:56:31.556Z,3.75
2023-05-12T05:57:34.741Z,3.80
2023-05-12T05:58:40.684Z,3.87
2023-05-12T05:59:43.569Z,3.97
2023-05-12T06:00:46.230Z,3.37
2023-05-12T06:01:49.101Z,3.48
2023-05-12T06:02:52.234Z,3.65
2023-05-12T06:03:54.987Z,3.91
2023-05-12T06:04:57.653Z,4.01
2023-05-12T06:06:00.320Z,3.33
2023-05-12T06:07:02.866Z,3.74
2023-05-12T06:08:05.532Z,3.42
2023-05-12T06:09:08.200Z,3.35
2023-05-12T06:10:10.772Z,3.02
2023-05-12T06:11:13.755Z,3.23
2023-05-12T06:12:17.133Z,3.41
2023-05-12T06:13:20.112Z,3.62
2023-05-12T06:14:23.005Z,3.58
2023-05-12T06:15:25.862Z,3.07
2023-05-12T06:16:28.637Z,2.96
2023-05-12T06:17:32.849Z,3.03
2023-05-12T06:18:35.933Z,3.28
2023-05-12T06:19:38.809Z,3.21
2023-05-12T06:20:41.686Z,3.08
2023-05-12T06:21:44.434Z,3.68
2023-05-12T06:22:47.345Z,3.58
2023-05-12T06:23:50.189Z,3.11
2023-05-12T06:24:53.066Z,3.65
2023-05-12T06:25:56.046Z,3.57
2023-05-12T06:26:58.910Z,3.45
2023-05-12T06:28:01.804Z,3.47
2023-05-12T06:29:05.085Z,3.35
2023-05-12T06:30:08.047Z,3.57
2023-05-12T06:31:11.238Z,3.41
2023-05-12T06:32:13.952Z,3.73
2023-05-12T06:33:16.579Z,3.95
2023-05-12T06:34:19.652Z,3.75
2023-05-12T06:35:22.468Z,3.78
2023-05-12T06:36:25.036Z,3.85
2023-05-12T06:37:27.667Z,3.84
2023-05-12T06:38:30.337Z,3.56
2023-05-12T06:39:33.413Z,3.72
2023-05-12T06:40:35.865Z,3.38
2023-05-12T06:41:38.347Z,3.48
2023-05-12T06:42:41.012Z,3.27
2023-05-12T06:43:43.582Z,3.45
2023-05-12T06:44:46.458Z,3.29
2023-05-12T06:45:49.170Z,3.57
2023-05-12T06:46:52.002Z,3.57
2023-05-12T06:47:54.918Z,3.82
2023-05-12T06:48:58.781Z,3.08
2023-05-12T06:50:01.657Z,2.96
2023-05-12T06:51:04.422Z,3.28
2023-05-12T06:52:07.325Z,3.11
2023-05-12T06:53:10.169Z,3.42
2023-05-12T06:54:14.070Z,3.20
2023-05-12T06:55:17.178Z,3.14
2023-05-12T06:56:20.024Z,3.42
2023-05-12T06:57:23.117Z,3.18
2023-05-12T06:58:25.676Z,2.77
2023-05-12T06:59:28.337Z,3.23
2023-05-12T07:00:31.126Z,3.52
2023-05-12T07:01:33.836Z,3.58
2023-05-12T07:02:36.468Z,3.48
2023-05-12T07:03:39.249Z,3.33
2023-05-12T07:04:41.893Z,3.54
2023-05-12T07:05:44.733Z,3.70
2023-05-12T07:06:47.437Z,3.63
2023-05-12T07:07:50.112Z,3.30
2023-05-12T07:08:52.792Z,3.14
2023-05-12T07:09:55.345Z,3.52
2023-05-12T07:10:58.122Z,3.22
2023-05-12T07:12:00.789Z,3.12
2023-05-12T07:13:03.355Z,3.33
2023-05-12T07:14:05.919Z,3.08
2023-05-12T07:15:08.571Z,3.02
2023-05-12T07:16:11.290Z,3.32
2023-05-12T07:17:14.039Z,3.15
2023-05-12T07:18:16.700Z,3.31
2023-05-12T07:19:19.383Z,3.08
2023-05-12T07:20:22.253Z,3.24
2023-05-12T07:21:25.349Z,3.56
2023-05-12T07:22:28.099Z,3.42
2023-05-12T07:23:31.091Z,3.54
2023-05-12T07:24:33.847Z,3.41
2023-05-12T07:25:36.927Z,3.36
2023-05-12T07:26:40.009Z,3.19
2023-05-12T07:27:42.876Z,3.26
2023-05-12T07:28:45.766Z,3.38
2023-05-12T07:29:48.625Z,3.09
2023-05-12T07:30:51.632Z,3.37
2023-05-12T07:31:54.706Z,3.37
2023-05-12T07:33:00.434Z,3.37
2023-05-12T07:34:03.205Z,3.48
2023-05-12T07:35:05.973Z,3.23
2023-05-12T07:36:08.848Z,3.28
2023-05-12T07:37:11.844Z,3.21
2023-05-12T07:38:14.706Z,3.45
2023-05-12T07:39:17.576Z,3.04
2023-05-12T07:40:20.457Z,2.95
2023-05-12T07:41:23.432Z,3.26
2023-05-12T07:42:26.506Z,3.44
2023-05-12T07:43:29.379Z,3.22
2023-05-12T07:44:32.372Z,3.48
2023-05-12T07:45:35.237Z,3.82
2023-05-12T07:46:38.133Z,3.72
2023-05-12T07:47:41.001Z,3.17
2023-05-12T07:48:43.857Z,3.45
2023-05-12T07:49:46.537Z,3.47
2023-05-12T07:50:49.412Z,3.27
2023-05-12T07:51:52.083Z,3.35
2023-05-12T07:52:56.384Z,3.24
2023-05-12T07:53:58.958Z,3.34
2023-05-12T07:55:01.721Z,3.70
2023-05-12T07:56:04.390Z,3.71
2023-05-12T07:57:07.167Z,3.32
2023-05-12T07:58:09.854Z,3.36
2023-05-12T07:59:12.401Z,3.27
2023-05-12T08:00:15.065Z,3.15
2023-05-12T08:01:17.738Z,3.37
2023-05-12T08:02:20.333Z,3.60
2023-05-12T08:03:23.051Z,3.29
2023-05-12T08:04:25.730Z,3.81
2023-05-12T08:05:28.350Z,3.74
2023-05-12T08:06:30.984Z,3.58
2023-05-12T08:07:33.661Z,3.63
2023-05-12T08:08:36.320Z,3.45
2023-05-12T08:09:39.203Z,3.93
2023-05-12T08:10:42.129Z,3.91
2023-05-12T08:11:47.050Z,3.95
2023-05-12T08:12:49.497Z,4.06
2023-05-12T08:13:52.335Z,4.28
2023-05-12T08:14:55.308Z,3.75
2023-05-12T08:15:58.203Z,3.84
2023-05-12T08:17:01.195Z,3.87
2023-05-12T08:18:04.160Z,4.07
2023-05-12T08:19:07.411Z,4.04
2023-05-12T08:20:10.305Z,3.80
2023-05-12T08:21:13.176Z,3.88
2023-05-12T08:22:15.851Z,4.18
2023-05-12T08:23:18.725Z,3.84
2023-05-12T08:24:21.806Z,3.98
2023-05-12T08:25:24.680Z,4.01
2023-05-12T08:26:27.545Z,3.86
2023-05-12T08:27:30.426Z,3.94
2023-05-12T08:28:33.397Z,4.65
2023-05-12T08:29:36.502Z,4.26
2023-05-12T08:30:39.256Z,4.34
2023-05-12T08:31:42.231Z,4.30
2023-05-12T08:32:45.121Z,4.55
2023-05-12T08:33:51.837Z,4.73
2023-05-12T08:34:52.688Z,4.44
2023-05-12T08:35:55.472Z,4.27
2023-05-12T08:36:58.334Z,4.77
2023-05-12T08:38:01.223Z,4.90
2023-05-12T08:39:04.127Z,4.54
2023-05-12T08:40:07.065Z,4.72
2023-05-12T08:41:09.837Z,4.62
2023-05-12T08:42:15.905Z,4.47
2023-05-12T08:43:18.571Z,4.64
2023-05-12T08:44:21.431Z,5.08
2023-05-12T08:45:26.221Z,4.39
2023-05-12T08:46:29.102Z,5.05
2023-05-12T08:47:32.025Z,4.78
2023-05-12T08:48:34.880Z,4.76
2023-05-12T08:49:37.748Z,5.08
2023-05-12T08:50:40.940Z,4.79
2023-05-12T08:51:43.499Z,4.66
2023-05-12T08:52:48.943Z,4.52
2023-05-12T08:53:51.605Z,4.63
2023-05-12T08:54:56.600Z,4.84
2023-05-12T08:57:09.513Z,5.18
2023-05-12T08:58:08.020Z,6.57
2023-05-12T08:59:10.903Z,5.11
2023-05-12T09:00:16.196Z,4.98
2023-05-12T09:01:18.884Z,4.97
2023-05-12T09:02:21.670Z,4.99
2023-05-12T09:03:24.285Z,4.83
2023-05-12T09:04:26.960Z,5.07
2023-05-12T09:05:29.569Z,4.70
2023-05-12T09:06:32.666Z,4.64
2023-05-12T09:07:35.630Z,4.55
2023-05-12T09:08:38.510Z,4.68
2023-05-12T09:09:41.379Z,4.82
2023-05-12T09:10:44.257Z,4.66
2023-05-12T09:11:47.453Z,4.70
2023-05-12T09:12:50.113Z,4.52
2023-05-12T09:13:53.092Z,5.13
2023-05-12T09:14:56.069Z,4.88
2023-05-12T09:15:59.029Z,5.13
2023-05-12T09:17:02.020Z,4.97
2023-05-12T09:18:04.914Z,4.94
2023-05-12T09:19:07.968Z,4.64
2023-05-12T09:20:20.568Z,4.73
2023-05-12T09:21:15.353Z,4.66
2023-05-12T09:22:18.246Z,4.68
2023-05-12T09:23:20.801Z,4.88
2023-05-12T09:24:23.594Z,4.82
2023-05-12T09:25:26.364Z,4.95
2023-05-12T09:26:29.216Z,4.93
2023-05-12T09:27:32.810Z,4.56
2023-05-12T09:28:35.695Z,4.63
2023-05-12T09:29:45.401Z,5.16
2023-05-12T09:30:42.905Z,4.98
2023-05-12T09:31:46.123Z,4.31
2023-05-12T09:32:52.876Z,5.22
2023-05-12T09:33:55.506Z,5.31
2023-05-12T09:34:58.468Z,4.46
2023-05-12T09:36:01.249Z,4.22
2023-05-12T09:37:04.117Z,4.53
2023-05-12T09:38:07.313Z,4.45
2023-05-12T09:39:10.170Z,4.43
2023-05-12T09:40:12.947Z,4.48
2023-05-12T09:41:15.816Z,4.65
2023-05-12T09:42:18.696Z,4.52
2023-05-12T09:43:21.722Z,4.66
2023-05-12T09:44:24.645Z,4.62
2023-05-12T09:45:27.521Z,4.35
2023-05-12T09:46:30.332Z,4.33
2023-05-12T09:47:33.184Z,5.17
2023-05-12T09:48:36.261Z,4.12
2023-05-12T09:49:39.033Z,4.58
2023-05-12T09:50:47.225Z,5.10
2023-05-12T09:51:46.011Z,4.14
2023-05-12T09:52:49.894Z,4.59
2023-05-12T09:53:52.770Z,6.05
2023-05-12T09:54:55.341Z,4.14
2023-05-12T09:55:58.001Z,4.33
2023-05-12T09:57:00.693Z,4.43
2023-05-12T09:58:03.344Z,4.58
2023-05-12T09:59:06.223Z,4.93
2023-05-12T10:00:16.615Z,4.47
2023-05-12T10:01:22.536Z,4.67
2023-05-12T10:02:17.147Z,4.31
2023-05-12T10:03:19.770Z,4.65
2023-05-12T10:04:22.651Z,4.59
2023-05-12T10:05:25.308Z,4.58
2023-05-12T10:06:27.980Z,4.70
2023-05-12T10:07:30.750Z,4.45
2023-05-12T10:08:33.428Z,4.61
2023-05-12T10:09:36.198Z,4.69
2023-05-12T10:10:38.865Z,4.78
2023-05-12T10:11:41.543Z,5.00
2023-05-12T10:12:44.410Z,4.61
2023-05-12T10:13:47.406Z,4.61
2023-05-12T10:14:50.477Z,4.17
2023-05-12T10:15:53.235Z,3.97
2023-05-12T10:16:56.035Z,4.04
2023-05-12T10:17:58.935Z,4.39
2023-05-12T10:19:01.799Z,4.75
2023-05-12T10:20:04.757Z,4.26
2023-05-12T10:21:07.506Z,4.62
2023-05-12T10:22:10.280Z,4.70
2023-05-12T10:23:13.186Z,4.52
2023-05-12T10:24:16.055Z,4.92
2023-05-12T10:25:19.621Z,4.86
2023-05-12T10:26:22.610Z,4.31
2023-05-12T10:27:25.587Z,4.52
2023-05-12T10:28:28.456Z,4.69
2023-05-12T10:29:31.228Z,4.61
2023-05-12T10:30:34.200Z,4.77
2023-05-12T10:31:36.909Z,4.74
2023-05-12T10:32:39.664Z,4.65
2023-05-12T10:33:42.625Z,4.92
2023-05-12T10:34:45.504Z,4.65
2023-05-12T10:35:49.560Z,4.15
2023-05-12T10:36:52.777Z,4.22
2023-05-12T10:37:55.353Z,4.56
2023-05-12T10:38:58.327Z,4.10
2023-05-12T10:40:01.221Z,4.17
2023-05-12T10:41:04.182Z,4.62
2023-05-12T10:42:07.197Z,4.92
2023-05-12T10:43:09.924Z,4.44
2023-05-12T10:44:12.897Z,4.51
2023-05-12T10:45:15.788Z,4.80
2023-05-12T10:46:18.677Z,4.48
2023-05-12T10:47:21.857Z,5.32
2023-05-12T10:48:24.706Z,4.59
2023-05-12T10:49:27.576Z,4.56
2023-05-12T10:50:30.564Z,4.82
2023-05-12T10:51:33.324Z,4.48
2023-05-12T10:52:36.305Z,4.62
2023-05-12T10:53:49.291Z,4.65
2023-05-12T10:54:43.488Z,5.00
2023-05-12T10:55:46.375Z,4.93
2023-05-12T10:56:50.089Z,4.98
2023-05-12T10:57:53.257Z,4.99
2023-05-12T10:58:56.380Z,4.74
2023-05-12T10:59:59.756Z,4.82
2023-05-12T11:01:03.186Z,4.91
2023-05-12T11:02:07.877Z,4.90
2023-05-12T11:03:11.492Z,4.85
2023-05-12T11:04:14.637Z,5.04
2023-05-12T11:05:17.912Z,5.82
2023-05-12T11:06:21.248Z,5.51
2023-05-12T11:07:24.690Z,5.42
2023-05-12T11:08:28.451Z,5.53
2023-05-12T11:09:31.502Z,5.37
2023-05-12T11:10:35.403Z,5.55
2023-05-12T11:11:38.657Z,5.06
2023-05-12T11:12:41.681Z,5.22
2023-05-12T11:13:44.468Z,4.83
2023-05-12T11:14:47.243Z,5.10
2023-05-12T11:15:50.027Z,5.25
2023-05-12T11:16:52.980Z,5.25
2023-05-12T11:17:55.967Z,5.15
2023-05-12T11:18:58.941Z,5.08
2023-05-12T11:20:02.060Z,4.86
2023-05-12T11:21:04.880Z,4.83
2023-05-12T11:22:07.770Z,4.75
2023-05-12T11:23:13.597Z,4.68
2023-05-12T11:24:20.138Z,5.20
2023-05-12T11:25:23.350Z,4.87
2023-05-12T11:26:26.428Z,4.54
2023-05-12T11:27:31.838Z,4.88
2023-05-12T11:28:34.738Z,4.69
2023-05-12T11:29:37.508Z,4.55
2023-05-12T11:30:40.376Z,4.44
2023-05-12T11:31:43.286Z,4.52
2023-05-12T11:32:45.890Z,4.48
2023-05-12T11:33:51.834Z,5.05
2023-05-12T11:34:52.811Z,5.04
2023-05-12T11:35:55.678Z,5.28
2023-05-12T11:36:58.549Z,4.78
2023-05-12T11:38:01.427Z,4.35
2023-05-12T11:39:04.405Z,4.80
2023-05-12T11:40:07.181Z,5.12
2023-05-12T11:41:09.946Z,4.65
2023-05-12T11:42:14.282Z,4.52
2023-05-12T11:43:17.240Z,4.23
2023-05-12T11:44:20.110Z,4.20
2023-05-12T11:45:23.171Z,4.47
2023-05-12T11:46:26.016Z,5.02
2023-05-12T11:47:28.661Z,5.37
2023-05-12T11:48:31.512Z,5.83
2023-05-12T11:49:34.484Z,7.95
2023-05-12T11:50:37.257Z,7.28
2023-05-12T11:51:40.130Z,6.39
2023-05-12T11:52:43.000Z,6.00
2023-05-12T11:53:45.877Z,6.45
2023-05-12T11:54:48.980Z,7.38
2023-05-12T11:55:51.632Z,6.62
2023-05-12T11:56:54.203Z,6.85
2023-05-12T11:57:56.871Z,6.49
2023-05-12T11:58:59.539Z,6.65
2023-05-12T12:00:02.319Z,6.46
2023-05-12T12:01:04.881Z,7.22
2023-05-12T12:02:07.471Z,6.53
2023-05-12T12:03:12.981Z,6.38
2023-05-12T12:04:15.874Z,6.61
2023-05-12T12:05:19.039Z,6.16
2023-05-12T12:06:21.720Z,6.62
2023-05-12T12:07:24.272Z,6.89
2023-05-12T12:08:28.074Z,6.61
2023-05-12T12:09:31.050Z,6.67
2023-05-12T12:10:39.229Z,7.15
2023-05-12T12:11:41.808Z,6.76
2023-05-12T12:12:44.485Z,6.97
2023-05-12T12:13:47.046Z,6.35
2023-05-12T12:14:50.342Z,7.02
2023-05-12T12:15:53.298Z,7.13
2023-05-12T12:16:56.087Z,6.54
2023-05-12T12:17:58.997Z,6.50
2023-05-12T12:19:01.674Z,6.92
2023-05-12T12:20:04.504Z,6.39
2023-05-12T12:21:07.485Z,6.45
2023-05-12T12:22:10.375Z,6.63
2023-05-12T12:23:13.232Z,6.83
2023-05-12T12:24:16.002Z,6.55
2023-05-12T12:25:19.158Z,7.09
2023-05-12T12:26:22.291Z,6.65
2023-05-12T12:27:25.241Z,6.88
2023-05-12T12:28:28.128Z,7.03
2023-05-12T12:29:30.909Z,8.32
2023-05-12T12:30:33.763Z,9.61
2023-05-12T12:31:36.966Z,8.64
2023-05-12T12:32:39.852Z,7.09
2023-05-12T12:33:42.809Z,7.50
2023-05-12T12:34:45.574Z,7.06
2023-05-12T12:35:48.343Z,7.62
2023-05-12T12:36:51.212Z,7.46
2023-05-12T12:37:54.090Z,7.23
2023-05-12T12:38:56.998Z,7.69
2023-05-12T12:39:59.741Z,7.89
2023-05-12T12:41:02.521Z,7.92
2023-05-12T12:42:05.178Z,7.58
2023-05-12T12:43:09.780Z,7.28
2023-05-12T12:44:12.671Z,8.18
2023-05-12T12:45:15.770Z,7.84
2023-05-12T12:46:19.809Z,8.15
2023-05-12T12:47:24.185Z,8.86
2023-05-12T12:48:27.248Z,8.19
2023-05-12T12:49:30.424Z,8.50
2023-05-12T12:50:33.402Z,8.24
2023-05-12T12:51:45.131Z,8.36
2023-05-12T12:52:40.498Z,8.54
2023-05-12T12:53:43.053Z,8.38
2023-05-12T12:54:45.817Z,8.52
2023-05-12T12:55:48.288Z,9.40
2023-05-12T12:56:50.862Z,9.14
2023-05-12T12:57:53.647Z,9.21
2023-05-12T12:58:56.312Z,8.66
2023-05-12T12:59:58.980Z,8.81
2023-05-12T13:01:01.805Z,8.58
2023-05-12T13:02:04.434Z,8.82
2023-05-12T13:03:07.310Z,8.92
2023-05-12T13:04:10.069Z,8.83
2023-05-12T13:05:12.741Z,9.04
2023-05-12T13:06:15.292Z,9.28
2023-05-12T13:07:19.098Z,9.90
2023-05-12T13:08:21.661Z,9.18
2023-05-12T13:09:24.360Z,9.93
2023-05-12T13:10:27.024Z,9.15
2023-05-12T13:11:29.559Z,10.23
2023-05-12T13:12:32.240Z,10.35
2023-05-12T13:13:35.128Z,10.22
2023-05-12T13:14:37.884Z,10.06
2023-05-12T13:15:40.564Z,9.96
2023-05-12T13:16:43.309Z,9.68
2023-05-12T13:17:45.928Z,9.41
2023-05-12T13:18:48.749Z,10.09
2023-05-12T13:19:51.324Z,10.02
2023-05-12T13:20:55.228Z,9.68
2023-05-12T13:21:57.809Z,9.42
2023-05-12T13:23:00.473Z,9.84
2023-05-12T13:24:03.148Z,9.64
2023-05-12T13:25:06.621Z,10.22
2023-05-12T13:26:09.298Z,9.59
2023-05-12T13:27:11.861Z,9.38
2023-05-12T13:28:14.552Z,10.31
2023-05-12T13:29:17.305Z,10.35
2023-05-12T13:30:19.989Z,9.74
2023-05-12T13:31:22.794Z,10.35
2023-05-12T13:32:25.550Z,9.93
2023-05-12T13:33:28.088Z,9.78
2023-05-12T13:34:30.772Z,10.16
2023-05-12T13:35:33.634Z,9.88
2023-05-12T13:36:36.524Z,10.05
2023-05-12T13:37:39.388Z,9.82
2023-05-12T13:38:42.271Z,9.39
2023-05-12T13:39:45.141Z,9.81
2023-05-12T13:40:47.698Z,9.92
2023-05-12T13:41:50.894Z,10.25
2023-05-12T13:42:53.752Z,9.63
2023-05-12T13:43:56.535Z,9.92
2023-05-12T13:44:59.540Z,10.33
2023-05-12T13:46:02.358Z,10.14
2023-05-12T13:47:05.147Z,9.92
2023-05-12T13:48:08.086Z,9.78
2023-05-12T13:49:10.897Z,9.45
2023-05-12T13:50:19.506Z,9.03
2023-05-12T13:51:22.085Z,9.16
2023-05-12T13:52:24.967Z,8.83
2023-05-12T13:53:27.730Z,8.35
2023-05-12T13:54:30.490Z,8.39
2023-05-12T13:55:33.367Z,8.55
2023-05-12T13:56:36.143Z,8.22
2023-05-12T13:57:39.020Z,8.47